Time;durP1;ratioP1;P1;durP2;ratioP2;P2;SDS_P1;SDS_P2;PMS_P1;PMS_P2;Temp;Humidity;BMP_temperature;BMP_pressure;BME280_temperature;BME280_humidity;BME280_pressure;Samples;Min_cycle;Max_cycle;Signal;HPM_P1;HPM_P2
2022/07/06 00:01:24;;;;;;;;;;;;;;;9.05;63.07;96419.88;6294891;28;20413;-64
2022/07/06 00:04:27;;;;;;;;;;;;;;;9.02;62.98;96421.88;6297118;28;19924;-63
2022/07/06 00:07:28;;;;;;;;;;;;;;;8.95;63.31;96424.91;6296278;28;19931;-63
2022/07/06 00:10:32;;;;;;;;;;;;;;;8.92;63.63;96419.88;6277563;28;20332;-64
2022/07/06 00:13:38;;;;;;;;;;;;;;;8.88;63.49;96428.84;6296686;28;19925;-63
2022/07/06 00:16:46;;;;;;;;;;;;;;;8.86;63.49;96435.16;6296556;28;19925;-63
2022/07/06 00:19:52;;;;;;;;;;;;;;;8.82;63.53;96431.88;6296442;28;19928;-64
2022/07/06 00:22:53;;;;;;;;;;;;;;;8.82;63.50;96428.44;6295591;28;19924;-64
2022/07/06 00:25:56;;;;;;;;;;;;;;;8.86;63.44;96424.66;6296214;28;19924;-64
2022/07/06 00:28:57;;;;;;;;;;;;;;;8.87;63.25;96437.69;6295724;28;20098;-64
2022/07/06 00:32:03;;;;;;;;;;;;;;;8.87;63.46;96435.06;6296504;28;20386;-64
2022/07/06 00:35:07;;;;;;;;;;;;;;;8.90;63.20;96434.84;6296000;28;19959;-64
2022/07/06 00:38:11;;;;;;;;;;;;;;;8.94;63.19;96438.94;6295340;28;19924;-63
2022/07/06 00:41:13;;;;;;;;;;;;;;;8.98;62.91;96440.44;6295152;28;20007;-63
2022/07/06 00:44:14;;;;;;;;;;;;;;;9.02;63.06;96437.63;6295259;28;20294;-64
2022/07/06 00:47:15;;;;;;;;;;;;;;;9.05;62.93;96440.03;6294600;28;19924;-64
2022/07/06 00:50:20;;;;;;;;;;;;;;;9.09;62.90;96436.28;6295238;28;20401;-63
2022/07/06 00:53:24;;;;;;;;;;;;;;;9.12;62.90;96443.97;6294096;28;19924;-63
2022/07/06 00:56:26;;;;;;;;;;;;;;;9.16;62.89;96448.06;6295257;28;19920;-63
2022/07/06 00:59:30;;;;;;;;;;;;;;;9.21;62.83;96438.09;6295615;28;19955;-63
2022/07/06 01:02:34;;;;;;;;;;;;;;;9.25;62.59;96439.56;6303657;28;19924;-63
2022/07/06 01:05:37;;;;;;;;;;;;;;;9.28;62.79;96436.72;6319873;28;20378;-64
2022/07/06 01:08:39;;;;;;;;;;;;;;;9.32;63.10;96440.84;6319351;28;19939;-64
2022/07/06 01:11:43;;;;;;;;;;;;;;;9.39;65.63;96438.66;6296599;28;19924;-63
2022/07/06 01:14:44;;;;;;;;;;;;;;;9.52;66.31;96443.94;6294293;28;19924;-63
2022/07/06 01:17:45;;;;;;;;;;;;;;;9.65;65.44;96444.75;6294570;28;20102;-63
2022/07/06 01:20:47;;;;;;;;;;;;;;;9.75;64.42;96439.75;6294945;28;19932;-63
2022/07/06 01:23:50;;;;;;;;;;;;;;;9.85;62.40;96441.63;6294258;28;19925;-64
2022/07/06 01:26:53;;;;;;;;;;;;;;;9.97;62.53;96444.38;6294985;28;19924;-63
2022/07/06 01:29:54;;;;;;;;;;;;;;;10.08;63.18;96450.56;6294560;28;19924;-62
2022/07/06 01:32:55;;;;;;;;;;;;;;;10.20;61.76;96435.69;6294697;28;19924;-63
2022/07/06 01:35:59;;;;;;;;;;;;;;;10.31;62.05;96443.72;6294175;28;20340;-63
2022/07/06 01:39:07;;;;;;;;;;;;;;;10.41;61.50;96449.16;6295112;28;20057;-63
2022/07/06 01:42:11;;;;;;;;;;;;;;;10.47;61.30;96445.25;6300584;28;19924;-63
2022/07/06 01:45:12;;;;;;;;;;;;;;;10.53;61.33;96437.78;6296680;28;20035;-64
2022/07/06 01:48:15;;;;;;;;;;;;;;;10.63;61.64;96440.56;6294793;28;19925;-63
2022/07/06 01:51:18;;;;;;;;;;;;;;;10.75;61.18;96431.78;6294540;28;19925;-63
2022/07/06 01:54:22;;;;;;;;;;;;;;;10.87;61.00;96442.38;6294690;28;20054;-63
2022/07/06 01:57:23;;;;;;;;;;;;;;;10.99;60.71;96441.50;6293144;28;19924;-62
2022/07/06 02:00:26;;;;;;;;;;;;;;;11.07;60.79;96441.75;6294593;28;19935;-63
2022/07/06 02:03:27;;;;;;;;;;;;;;;11.16;60.85;96445.50;6293875;28;20045;-63
2022/07/06 02:06:28;;;;;;;;;;;;;;;11.27;60.59;96447.34;6296164;28;19931;-63
2022/07/06 02:09:29;;;;;;;;;;;;;;;11.35;60.39;96447.59;6297887;28;19924;-63
2022/07/06 02:12:30;;;;;;;;;;;;;;;11.42;60.28;96449.66;6298033;28;20009;-63
2022/07/06 02:15:35;;;;;;;;;;;;;;;11.56;60.51;96453.06;6317781;28;19920;-64
2022/07/06 02:18:36;;;;;;;;;;;;;;;11.67;60.37;96446.03;6309426;28;19931;-62
2022/07/06 02:21:37;;;;;;;;;;;;;;;11.71;60.27;96451.06;6298795;28;19931;-63
2022/07/06 02:24:39;;;;;;;;;;;;;;;11.80;59.92;96450.34;6297750;28;19925;-66
2022/07/06 02:27:45;;;;;;;;;;;;;;;11.87;59.83;96454.25;6298000;28;19932;-63
2022/07/06 02:30:46;;;;;;;;;;;;;;;11.96;59.75;96450.88;6298513;28;19935;-63
2022/07/06 02:33:50;;;;;;;;;;;;;;;12.02;59.50;96460.97;6298859;28;19924;-64
2022/07/06 02:36:54;;;;;;;;;;;;;;;12.06;59.33;96456.31;6298616;28;20401;-63
2022/07/06 02:39:58;;;;;;;;;;;;;;;12.12;59.20;96461.94;6298639;28;20386;-63
2022/07/06 02:43:02;;;;;;;;;;;;;;;12.22;59.06;96448.84;6298585;28;19925;-63
2022/07/06 02:46:06;;;;;;;;;;;;;;;12.28;58.78;96450.19;6298705;28;19924;-63
2022/07/06 02:49:08;;;;;;;;;;;;;;;12.41;58.66;96450.06;6298529;28;19928;-63
2022/07/06 02:52:12;;;;;;;;;;;;;;;12.49;58.31;96448.50;6280676;28;19924;-63
2022/07/06 02:55:16;;;;;;;;;;;;;;;12.52;58.18;96448.25;6298646;28;19924;-63
2022/07/06 02:58:20;;;;;;;;;;;;;;;12.56;58.16;96452.31;6298111;28;19924;-64
2022/07/06 03:01:24;;;;;;;;;;;;;;;12.62;57.83;96450.16;6298411;28;20382;-64
2022/07/06 03:04:28;;;;;;;;;;;;;;;12.70;57.84;96445.09;6298060;28;19928;-64
2022/07/06 03:07:31;;;;;;;;;;;;;;;12.76;57.71;96455.16;6298244;28;20122;-64
2022/07/06 03:10:35;;;;;;;;;;;;;;;12.81;57.34;96450.34;6297860;28;19925;-63
2022/07/06 03:13:39;;;;;;;;;;;;;;;12.86;57.00;96450.84;6297713;28;19990;-63
2022/07/06 03:16:43;;;;;;;;;;;;;;;12.93;56.86;96454.63;6296917;28;19925;-65
2022/07/06 03:19:47;;;;;;;;;;;;;;;12.96;56.73;96449.09;6298005;28;19924;-63
2022/07/06 03:22:51;;;;;;;;;;;;;;;13.00;56.47;96447.06;6297539;28;19924;-63
2022/07/06 03:25:54;;;;;;;;;;;;;;;13.02;56.68;96443.34;6297829;28;19924;-63
2022/07/06 03:28:58;;;;;;;;;;;;;;;13.10;56.53;96439.22;6297432;28;19929;-63
2022/07/06 03:32:03;;;;;;;;;;;;;;;13.17;56.08;96438.59;6296366;28;20377;-63
2022/07/06 03:35:06;;;;;;;;;;;;;;;13.22;55.99;96441.72;6287521;28;20319;-64
2022/07/06 03:38:10;;;;;;;;;;;;;;;13.30;55.87;96449.03;6290702;28;19924;-63
2022/07/06 03:41:14;;;;;;;;;;;;;;;13.39;55.57;96443.00;6284282;28;19924;-63
2022/07/06 03:44:18;;;;;;;;;;;;;;;13.52;55.03;96444.59;6295186;28;19924;-64
2022/07/06 03:47:22;;;;;;;;;;;;;;;13.64;54.14;96440.94;6282530;28;19924;-64
2022/07/06 03:50:26;;;;;;;;;;;;;;;13.80;53.29;96446.59;6290211;28;20309;-64
2022/07/06 03:53:29;;;;;;;;;;;;;;;13.91;52.63;96443.88;6289334;28;19924;-63
2022/07/06 03:56:33;;;;;;;;;;;;;;;13.92;52.54;96444.72;6285876;28;19924;-64
2022/07/06 03:59:36;;;;;;;;;;;;;;;13.91;52.52;96443.88;6294248;28;19924;-63
2022/07/06 04:02:40;;;;;;;;;;;;;;;13.98;52.33;96441.53;6289411;28;19924;-63
2022/07/06 04:05:43;;;;;;;;;;;;;;;14.04;52.22;96437.53;6287494;28;19924;-62
2022/07/06 04:08:47;;;;;;;;;;;;;;;14.07;52.22;96440.78;6294361;28;19924;-63
2022/07/06 04:11:51;;;;;;;;;;;;;;;14.35;51.17;96439.25;6282541;28;19925;-64
2022/07/06 04:14:56;;;;;;;;;;;;;;;14.42;50.91;96441.34;6283700;28;19932;-63
2022/07/06 04:17:59;;;;;;;;;;;;;;;14.51;50.61;96448.47;6285630;28;19920;-64
2022/07/06 04:21:03;;;;;;;;;;;;;;;14.62;50.19;96445.75;6286587;28;19925;-63
2022/07/06 04:24:07;;;;;;;;;;;;;;;14.79;49.17;96446.91;6282724;28;19924;-63
2022/07/06 04:27:10;;;;;;;;;;;;;;;14.88;48.88;96437.31;6284723;28;19920;-64
2022/07/06 04:30:13;;;;;;;;;;;;;;;14.79;49.16;96445.09;6289284;28;19924;-64
2022/07/06 04:33:16;;;;;;;;;;;;;;;14.86;48.54;96434.81;6291089;28;19989;-63
2022/07/06 04:36:19;;;;;;;;;;;;;;;14.96;48.64;96440.13;6289221;28;19929;-63
2022/07/06 04:39:22;;;;;;;;;;;;;;;15.27;47.10;96444.31;6285415;28;19924;-62
2022/07/06 04:42:25;;;;;;;;;;;;;;;15.42;46.57;96441.25;6285841;28;19924;-63
2022/07/06 04:45:30;;;;;;;;;;;;;;;15.51;46.59;96443.06;6274088;28;20318;-64
2022/07/06 04:48:36;;;;;;;;;;;;;;;16.19;45.27;96431.50;6292109;28;20440;-63
2022/07/06 04:51:40;;;;;;;;;;;;;;;18.79;40.04;96439.34;6286271;28;19924;-63
2022/07/06 04:54:43;;;;;;;;;;;;;;;22.06;35.27;96435.00;6274228;28;20287;-63
2022/07/06 04:57:46;;;;;;;;;;;;;;;25.24;32.09;96436.50;6281147;28;20393;-64
2022/07/06 05:00:48;;;;;;;;;;;;;;;28.24;29.02;96450.19;6294921;28;19928;-63
2022/07/06 05:03:51;;;;;;;;;;;;;;;31.38;27.62;96459.88;6296273;28;19924;-63
2022/07/06 05:06:55;;;;;;;;;;;;;;;34.09;24.39;96454.94;6314631;28;19925;-64
2022/07/06 05:09:58;;;;;;;;;;;;;;;36.36;22.47;96459.34;6283929;28;19924;-63
2022/07/06 05:13:02;;;;;;;;;;;;;;;37.40;19.40;96456.97;6279525;28;19925;-63
2022/07/06 05:16:05;;;;;;;;;;;;;;;39.20;19.91;96459.19;6285674;28;20310;-64
2022/07/06 05:19:08;;;;;;;;;;;;;;;41.48;18.85;96460.59;6269779;28;20391;-63
2022/07/06 05:22:11;;;;;;;;;;;;;;;43.64;17.42;96457.69;6287025;28;19925;-65
2022/07/06 05:25:15;;;;;;;;;;;;;;;45.41;17.14;96462.41;6294362;28;19925;-63
2022/07/06 05:28:19;;;;;;;;;;;;;;;46.67;17.52;96456.94;6290960;28;19928;-64
2022/07/06 05:31:22;;;;;;;;;;;;;;;47.87;12.49;96444.63;6286452;28;19924;-64
2022/07/06 05:34:25;;;;;;;;;;;;;;;48.36;13.22;96452.03;6286275;28;19977;-64
2022/07/06 05:37:29;;;;;;;;;;;;;;;48.40;11.76;96440.97;6285364;28;19925;-64
2022/07/06 05:40:32;;;;;;;;;;;;;;;49.38;11.31;96446.81;6286027;28;19924;-62
2022/07/06 05:43:36;;;;;;;;;;;;;;;49.27;7.75;96447.72;6289789;28;19924;-63
2022/07/06 05:46:40;;;;;;;;;;;;;;;48.81;9.72;96438.91;6290361;28;19963;-64
2022/07/06 05:53:06;;;;;;;;;;;;;;;47.64;8.78;96433.13;6285837;28;20015;-63
2022/07/06 05:56:09;;;;;;;;;;;;;;;46.74;8.57;96418.22;6289775;28;20030;-64
2022/07/06 05:59:12;;;;;;;;;;;;;;;45.97;8.84;96430.84;6290044;28;19973;-64
2022/07/06 06:02:15;;;;;;;;;;;;;;;45.77;9.03;96441.59;6288872;28;19924;-64
2022/07/06 06:05:19;;;;;;;;;;;;;;;47.06;9.03;96435.22;6286216;28;19924;-64
2022/07/06 06:08:22;;;;;;;;;;;;;;;43.12;10.29;96418.75;6290350;28;19924;-64
2022/07/06 06:11:26;;;;;;;;;;;;;;;38.85;13.49;96392.44;6280335;28;19925;-64
2022/07/06 06:14:30;;;;;;;;;;;;;;;36.68;14.40;96385.03;6282181;28;19982;-64
2022/07/06 06:17:33;;;;;;;;;;;;;;;37.00;14.38;96381.09;6282571;28;20402;-63
2022/07/06 06:20:36;;;;;;;;;;;;;;;39.10;13.21;96387.75;6281473;28;20686;-64
2022/07/06 06:23:40;;;;;;;;;;;;;;;38.63;13.49;96380.03;6293684;28;19925;-64
2022/07/06 06:26:44;;;;;;;;;;;;;;;37.95;13.79;96375.41;6288356;28;19925;-63
2022/07/06 06:29:47;;;;;;;;;;;;;;;37.65;13.30;96378.34;6281336;28;19929;-63
2022/07/06 06:32:51;;;;;;;;;;;;;;;39.43;12.51;96386.00;6283309;28;19925;-65
2022/07/06 06:35:54;;;;;;;;;;;;;;;39.93;12.34;96380.88;6284105;28;19925;-67
2022/07/06 06:38:58;;;;;;;;;;;;;;;39.29;12.54;96375.69;6287228;28;19932;-61
2022/07/06 06:42:01;;;;;;;;;;;;;;;40.05;12.34;96372.94;6278841;28;19924;-62
2022/07/06 06:45:05;;;;;;;;;;;;;;;41.17;11.65;96378.41;6264350;28;19924;-63
2022/07/06 06:48:07;;;;;;;;;;;;;;;42.73;11.57;96375.25;6286299;28;19953;-64
2022/07/06 06:51:10;;;;;;;;;;;;;;;45.24;9.63;96384.72;6281288;28;19925;-66
2022/07/06 06:54:14;;;;;;;;;;;;;;;47.81;9.03;96395.03;6272113;28;19925;-64
2022/07/06 06:57:17;;;;;;;;;;;;;;;49.06;8.23;96397.66;6286734;28;19924;-63
2022/07/06 07:00:20;;;;;;;;;;;;;;;45.73;10.10;96393.41;6294070;28;19924;-69
2022/07/06 07:03:23;;;;;;;;;;;;;;;40.74;12.33;96372.31;6287497;28;19933;-64
2022/07/06 07:06:25;;;;;;;;;;;;;;;40.22;11.98;96357.84;6293030;28;19925;-63
2022/07/06 07:09:29;;;;;;;;;;;;;;;39.00;12.67;96372.22;6288450;28;19924;-63
2022/07/06 07:12:33;;;;;;;;;;;;;;;39.01;12.19;96357.34;6294001;28;19924;-63
2022/07/06 07:15:37;;;;;;;;;;;;;;;40.84;11.46;96364.69;6285052;28;19955;-63
2022/07/06 07:18:41;;;;;;;;;;;;;;;40.64;11.71;96364.28;6271923;28;19925;-63
2022/07/06 07:21:45;;;;;;;;;;;;;;;39.83;12.47;96367.25;6295408;28;19925;-62
2022/07/06 07:24:48;;;;;;;;;;;;;;;43.47;10.58;96374.53;6297025;28;19924;-62
2022/07/06 07:27:52;;;;;;;;;;;;;;;47.18;8.92;96382.28;6292723;28;20017;-63
2022/07/06 07:30:56;;;;;;;;;;;;;;;49.15;7.35;96392.72;6291137;28;19979;-62
2022/07/06 07:33:59;;;;;;;;;;;;;;;47.82;8.37;96388.28;6292326;28;19924;-61
2022/07/06 07:37:03;;;;;;;;;;;;;;;43.80;10.48;96371.34;6292175;28;19924;-62
2022/07/06 07:40:07;;;;;;;;;;;;;;;40.55;12.69;96364.13;6299855;28;20305;-62
2022/07/06 07:43:11;;;;;;;;;;;;;;;39.21;12.95;96359.84;6282239;28;19928;-62
2022/07/06 07:46:15;;;;;;;;;;;;;;;37.83;13.62;96354.91;6288670;28;19928;-63
2022/07/06 07:49:20;;;;;;;;;;;;;;;40.24;12.13;96369.38;6283523;28;19929;-63
2022/07/06 07:52:23;;;;;;;;;;;;;;;43.74;10.22;96378.16;6289800;28;19928;-63
2022/07/06 07:55:27;;;;;;;;;;;;;;;46.51;9.10;96375.22;6288648;28;19925;-64
2022/07/06 07:58:31;;;;;;;;;;;;;;;46.80;9.26;96372.28;6285116;28;19929;-64
2022/07/06 08:01:35;;;;;;;;;;;;;;;47.51;8.96;96375.00;6290183;28;19925;-63
2022/07/06 08:04:38;;;;;;;;;;;;;;;46.97;8.75;96371.25;6289288;28;19928;-63
2022/07/06 08:07:41;;;;;;;;;;;;;;;43.83;10.88;96365.16;6283094;28;19925;-63
2022/07/06 08:10:45;;;;;;;;;;;;;;;43.17;11.25;96365.19;6272390;28;19924;-63
2022/07/06 08:13:49;;;;;;;;;;;;;;;46.16;9.75;96370.00;6286772;28;19925;-63
2022/07/06 08:16:52;;;;;;;;;;;;;;;48.48;7.81;96375.81;6283218;28;19928;-65
2022/07/06 08:19:56;;;;;;;;;;;;;;;48.40;7.76;96377.59;6282552;28;20309;-65
2022/07/06 08:23:00;;;;;;;;;;;;;;;48.65;7.65;96392.25;6289450;28;20393;-64
2022/07/06 08:26:03;;;;;;;;;;;;;;;49.87;6.13;96395.19;6289091;28;20023;-66
2022/07/06 08:29:06;;;;;;;;;;;;;;;51.05;6.64;96386.31;6285300;28;20327;-66
2022/07/06 08:32:09;;;;;;;;;;;;;;;52.08;6.75;96394.66;6286084;28;20282;-65
2022/07/06 08:35:11;;;;;;;;;;;;;;;53.01;6.85;96397.69;6288389;28;19924;-70
2022/07/06 08:38:15;;;;;;;;;;;;;;;51.29;7.13;96393.50;6270819;28;20302;-66
2022/07/06 08:41:21;;;;;;;;;;;;;;;49.85;7.22;96389.16;6289551;28;19928;-65
2022/07/06 08:44:26;;;;;;;;;;;;;;;47.96;7.79;96387.88;6282789;28;19924;-64
2022/07/06 08:47:30;;;;;;;;;;;;;;;44.30;10.07;96379.13;6296757;28;19920;-64
2022/07/06 08:50:34;;;;;;;;;;;;;;;43.64;10.49;96357.16;6294433;28;19924;-65
2022/07/06 08:53:38;;;;;;;;;;;;;;;45.61;9.44;96354.41;6271838;28;19920;-64
2022/07/06 08:56:41;;;;;;;;;;;;;;;47.19;8.88;96375.56;6271434;28;19924;-64
2022/07/06 08:59:44;;;;;;;;;;;;;;;47.27;7.97;96362.66;6271594;28;19920;-64
2022/07/06 09:02:50;;;;;;;;;;;;;;;46.81;8.29;96350.81;6271318;28;19925;-65
2022/07/06 09:05:52;;;;;;;;;;;;;;;47.37;8.02;96364.19;6253298;28;19925;-64
2022/07/06 09:08:56;;;;;;;;;;;;;;;46.05;8.68;96358.47;6270983;28;20390;-64
2022/07/06 09:11:59;;;;;;;;;;;;;;;43.22;9.89;96346.47;6270122;28;19924;-64
2022/07/06 09:15:02;;;;;;;;;;;;;;;40.91;11.48;96336.69;6270026;28;20314;-65
2022/07/06 09:18:08;;;;;;;;;;;;;;;41.67;10.73;96333.41;6270956;28;20000;-65
2022/07/06 09:21:11;;;;;;;;;;;;;;;42.71;10.56;96342.38;6270832;28;19925;-65
2022/07/06 09:24:15;;;;;;;;;;;;;;;43.81;9.34;96340.53;6271027;28;19924;-64
2022/07/06 09:27:18;;;;;;;;;;;;;;;45.31;8.88;96356.41;6270837;28;20307;-65
2022/07/06 09:30:23;;;;;;;;;;;;;;;46.38;7.99;96354.91;6270570;28;20395;-65
2022/07/06 09:33:26;;;;;;;;;;;;;;;46.94;8.06;96358.03;6270385;28;19925;-65
2022/07/06 09:36:43;;;;;;;;;;;;;;;46.89;8.37;96351.88;6270739;28;19958;-64
2022/07/06 09:39:47;;;;;;;;;;;;;;;46.72;8.58;96347.34;6270892;28;19929;-64
2022/07/06 09:42:50;;;;;;;;;;;;;;;46.33;8.25;96341.22;6270719;28;19924;-64
2022/07/06 09:45:55;;;;;;;;;;;;;;;45.63;8.72;96341.00;6270423;28;20310;-65
2022/07/06 09:49:00;;;;;;;;;;;;;;;45.68;8.60;96341.63;6270512;28;19925;-64
2022/07/06 09:52:05;;;;;;;;;;;;;;;45.47;8.52;96344.38;6270370;28;19925;-65
2022/07/06 09:55:16;;;;;;;;;;;;;;;42.60;9.63;96329.94;6270150;28;19925;-65
2022/07/06 09:58:20;;;;;;;;;;;;;;;39.39;11.69;96318.91;6270422;28;20382;-65
2022/07/06 10:01:30;;;;;;;;;;;;;;;37.72;12.59;96310.22;6270013;28;19924;-65
2022/07/06 10:04:33;;;;;;;;;;;;;;;36.38;13.46;96309.22;6270642;28;19932;-65
2022/07/06 10:07:36;;;;;;;;;;;;;;;34.83;14.96;96312.84;6270410;28;19929;-64
2022/07/06 10:10:40;;;;;;;;;;;;;;;33.60;15.90;96313.94;6270255;28;19924;-64
2022/07/06 10:13:46;;;;;;;;;;;;;;;32.59;16.04;96311.72;6270288;28;19924;-64
2022/07/06 10:16:50;;;;;;;;;;;;;;;31.84;16.71;96322.00;6270163;28;19925;-65
2022/07/06 10:19:55;;;;;;;;;;;;;;;31.44;17.59;96322.16;6270228;28;19925;-65
2022/07/06 10:22:59;;;;;;;;;;;;;;;31.20;17.48;96316.81;6269990;28;19925;-65
2022/07/06 10:26:02;;;;;;;;;;;;;;;30.81;18.02;96318.50;6270207;28;20295;-65
2022/07/06 10:29:05;;;;;;;;;;;;;;;30.18;18.39;96311.97;6274653;28;20402;-65
2022/07/06 10:32:09;;;;;;;;;;;;;;;29.76;18.93;96306.66;6274638;28;19925;-66
2022/07/06 10:35:13;;;;;;;;;;;;;;;30.51;18.26;96300.47;6274709;28;19924;-65
2022/07/06 10:38:17;;;;;;;;;;;;;;;32.60;16.85;96308.72;6274403;28;19928;-65
2022/07/06 10:41:33;;;;;;;;;;;;;;;34.63;15.43;96318.25;6274246;28;19925;-64
2022/07/06 10:44:44;;;;;;;;;;;;;;;36.52;13.52;96321.22;6274785;28;20341;-64
2022/07/06 10:47:48;;;;;;;;;;;;;;;36.27;13.88;96315.81;6274084;28;19925;-65
2022/07/06 10:50:52;;;;;;;;;;;;;;;34.60;15.61;96313.31;6274365;28;20310;-65
2022/07/06 10:54:01;;;;;;;;;;;;;;;32.52;17.86;96311.88;6274010;28;19924;-65
2022/07/06 10:57:09;;;;;;;;;;;;;;;30.53;19.27;96305.69;6273862;28;19925;-64
2022/07/06 11:00:14;;;;;;;;;;;;;;;29.41;20.16;96299.25;6274016;28;19929;-65
2022/07/06 11:03:33;;;;;;;;;;;;;;;29.87;19.61;96308.56;6273868;28;19924;-64
2022/07/06 11:06:40;;;;;;;;;;;;;;;29.83;20.13;96307.34;6270998;28;19928;-65
2022/07/06 11:09:56;;;;;;;;;;;;;;;31.02;19.01;96306.13;6274070;28;19925;-65
2022/07/06 11:13:02;;;;;;;;;;;;;;;31.47;18.59;96316.22;6273996;28;19928;-65
2022/07/06 11:16:06;;;;;;;;;;;;;;;32.20;17.94;96315.25;6273185;28;19928;-65
2022/07/06 11:19:11;;;;;;;;;;;;;;;32.60;17.43;96307.91;6273788;28;19925;-65
2022/07/06 11:22:16;;;;;;;;;;;;;;;31.52;18.79;96313.59;6273323;28;20378;-65
2022/07/06 11:25:20;;;;;;;;;;;;;;;31.58;19.41;96312.59;6273606;28;19924;-66
2022/07/06 11:28:24;;;;;;;;;;;;;;;31.59;19.79;96324.31;6273470;28;19928;-65
2022/07/06 11:31:28;;;;;;;;;;;;;;;30.13;22.79;96315.38;6273678;28;20414;-65
2022/07/06 11:34:32;;;;;;;;;;;;;;;28.49;25.94;96317.59;6273581;28;20389;-65
2022/07/06 11:37:36;;;;;;;;;;;;;;;27.43;27.70;96313.94;6272758;28;19925;-65
2022/07/06 11:40:38;;;;;;;;;;;;;;;27.28;28.48;96317.78;6255653;28;19925;-64
2022/07/06 11:43:44;;;;;;;;;;;;;;;26.83;28.85;96315.09;6273632;28;19931;-64
2022/07/06 11:46:48;;;;;;;;;;;;;;;25.76;30.34;96313.72;6273364;28;19925;-65
2022/07/06 11:49:52;;;;;;;;;;;;;;;25.69;30.78;96312.88;6272662;28;19925;-64
2022/07/06 11:52:56;;;;;;;;;;;;;;;26.20;30.15;96312.22;6273743;28;19924;-65
2022/07/06 11:56:02;;;;;;;;;;;;;;;26.46;29.20;96321.25;6273512;28;19925;-65
2022/07/06 11:59:07;;;;;;;;;;;;;;;26.79;28.57;96316.59;6273548;28;19924;-66
2022/07/06 12:02:15;;;;;;;;;;;;;;;27.17;28.34;96315.78;6255538;28;19924;-65
2022/07/06 12:05:31;;;;;;;;;;;;;;;27.18;28.48;96317.44;6273151;28;19924;-65
2022/07/06 12:08:41;;;;;;;;;;;;;;;27.25;28.58;96312.81;6273025;28;19925;-64
2022/07/06 12:11:46;;;;;;;;;;;;;;;27.28;28.62;96317.78;6272535;28;19925;-65
2022/07/06 12:14:53;;;;;;;;;;;;;;;27.44;28.04;96315.59;6272418;28;19924;-65
2022/07/06 12:17:56;;;;;;;;;;;;;;;27.61;27.83;96308.59;6272306;28;19968;-65
2022/07/06 12:20:59;;;;;;;;;;;;;;;27.24;28.63;96303.06;6272632;28;19931;-65
2022/07/06 12:24:06;;;;;;;;;;;;;;;26.98;28.69;96311.31;6271933;28;19940;-65
2022/07/06 12:27:12;;;;;;;;;;;;;;;26.60;29.48;96309.41;6271543;28;19925;-65
2022/07/06 12:30:16;;;;;;;;;;;;;;;26.24;29.79;96305.34;6271323;28;20410;-65
2022/07/06 12:33:19;;;;;;;;;;;;;;;26.03;30.08;96313.72;6271874;28;19925;-65
2022/07/06 12:36:25;;;;;;;;;;;;;;;25.58;31.14;96310.81;6271751;28;19971;-64
2022/07/06 12:39:29;;;;;;;;;;;;;;;25.18;31.60;96313.47;6271725;28;20401;-65
2022/07/06 12:42:32;;;;;;;;;;;;;;;24.87;31.88;96320.22;6253475;28;19924;-65
2022/07/06 12:45:36;;;;;;;;;;;;;;;24.57;32.54;96315.16;6271564;28;19924;-65
2022/07/06 12:48:52;;;;;;;;;;;;;;;24.38;33.18;96321.25;6271769;28;19924;-66
2022/07/06 12:52:03;;;;;;;;;;;;;;;23.85;34.21;96310.19;6272345;28;19940;-65
2022/07/06 12:55:07;;;;;;;;;;;;;;;23.66;35.46;96312.47;6270869;28;19925;-65
2022/07/06 12:58:17;;;;;;;;;;;;;;;23.38;36.08;96319.69;6272919;28;19989;-65
2022/07/06 13:01:22;;;;;;;;;;;;;;;22.84;37.12;96319.16;6271982;28;19924;-66
2022/07/06 13:04:29;;;;;;;;;;;;;;;22.56;37.39;96326.22;6271807;28;19975;-65
2022/07/06 13:07:37;;;;;;;;;;;;;;;22.54;37.59;96318.38;6272461;28;19924;-66
2022/07/06 13:10:42;;;;;;;;;;;;;;;22.76;37.48;96326.47;6271105;28;19924;-65
2022/07/06 13:13:45;;;;;;;;;;;;;;;22.88;36.67;96324.97;6271192;28;19925;-65
2022/07/06 13:16:51;;;;;;;;;;;;;;;23.45;36.07;96329.47;6270837;28;19925;-65
2022/07/06 13:19:54;;;;;;;;;;;;;;;23.95;35.25;96326.78;6270709;28;19932;-64
2022/07/06 13:22:58;;;;;;;;;;;;;;;24.18;34.39;96319.28;6270929;28;19925;-65
2022/07/06 13:26:01;;;;;;;;;;;;;;;24.62;33.73;96331.50;6271150;28;19924;-66
2022/07/06 13:29:05;;;;;;;;;;;;;;;25.14;33.12;96331.03;6270749;28;20294;-66
2022/07/06 13:32:12;;;;;;;;;;;;;;;25.18;33.38;96338.53;6270622;28;19925;-65
2022/07/06 13:35:15;;;;;;;;;;;;;;;25.09;33.08;96340.56;6271029;28;19924;-66
2022/07/06 13:38:19;;;;;;;;;;;;;;;24.64;33.78;96337.53;6271919;28;19976;-65
2022/07/06 13:41:22;;;;;;;;;;;;;;;24.36;34.68;96342.13;6253878;28;20027;-65
2022/07/06 13:44:26;;;;;;;;;;;;;;;24.08;35.33;96340.28;6271081;28;20019;-65
2022/07/06 13:47:30;;;;;;;;;;;;;;;23.35;36.29;96344.22;6271585;28;19924;-66
2022/07/06 13:50:34;;;;;;;;;;;;;;;23.05;37.02;96339.00;6271075;28;19925;-65
2022/07/06 13:53:39;;;;;;;;;;;;;;;22.66;37.65;96342.03;6271144;28;19948;-65
2022/07/06 13:56:43;;;;;;;;;;;;;;;22.44;38.02;96333.09;6254064;28;20075;-64
2022/07/06 13:59:47;;;;;;;;;;;;;;;22.67;37.75;96333.78;6271525;28;19924;-64
2022/07/06 14:02:51;;;;;;;;;;;;;;;22.82;37.26;96337.28;6274719;28;19925;-65
2022/07/06 14:05:59;;;;;;;;;;;;;;;22.66;37.28;96339.34;6275329;28;19924;-65
2022/07/06 14:09:03;;;;;;;;;;;;;;;22.50;37.59;96343.06;6274864;28;20321;-66
2022/07/06 14:12:05;;;;;;;;;;;;;;;22.30;38.45;96340.97;6274627;28;19924;-65
2022/07/06 14:15:08;;;;;;;;;;;;;;;21.97;39.24;96338.63;6274987;28;20007;-65
2022/07/06 14:18:11;;;;;;;;;;;;;;;21.48;39.96;96344.44;6274705;28;19927;-65
2022/07/06 14:21:15;;;;;;;;;;;;;;;21.06;40.78;96350.25;6275231;28;20283;-66
2022/07/06 14:24:19;;;;;;;;;;;;;;;20.85;41.37;96348.22;6275142;28;19925;-66
2022/07/06 14:27:22;;;;;;;;;;;;;;;20.71;41.60;96348.97;6275507;28;19929;-66
2022/07/06 14:30:25;;;;;;;;;;;;;;;20.70;41.75;96345.47;6274828;28;19925;-65
2022/07/06 14:33:28;;;;;;;;;;;;;;;20.68;41.83;96335.97;6275446;28;20365;-66
2022/07/06 14:36:33;;;;;;;;;;;;;;;20.74;42.34;96345.94;6275319;28;19925;-65
2022/07/06 14:39:36;;;;;;;;;;;;;;;20.58;42.44;96353.06;6275275;28;19924;-67
2022/07/06 14:42:39;;;;;;;;;;;;;;;20.61;43.44;96362.56;6275567;28;19925;-65
2022/07/06 14:45:44;;;;;;;;;;;;;;;20.47;44.07;96366.78;6274689;28;19929;-65
2022/07/06 14:48:47;;;;;;;;;;;;;;;20.43;44.11;96370.78;6274457;28;20294;-65
2022/07/06 14:51:50;;;;;;;;;;;;;;;20.47;44.86;96372.13;6256459;28;20374;-66
2022/07/06 14:54:54;;;;;;;;;;;;;;;20.36;45.65;96373.31;6273966;28;19921;-65
2022/07/06 14:57:58;;;;;;;;;;;;;;;20.31;45.53;96369.50;6274060;28;19925;-65
2022/07/06 15:01:02;;;;;;;;;;;;;;;19.92;46.27;96362.25;6274025;28;19921;-64
2022/07/06 15:04:05;;;;;;;;;;;;;;;19.83;46.47;96349.94;6273729;28;19925;-65
2022/07/06 15:07:08;;;;;;;;;;;;;;;19.68;46.44;96355.13;6272198;28;19924;-65
2022/07/06 15:10:12;;;;;;;;;;;;;;;19.63;46.99;96350.25;6273773;28;19924;-65
2022/07/06 15:13:16;;;;;;;;;;;;;;;19.52;47.62;96358.63;6272197;28;19925;-65
2022/07/06 15:16:19;;;;;;;;;;;;;;;19.33;47.69;96361.63;6273345;28;20305;-65
2022/07/06 15:19:22;;;;;;;;;;;;;;;19.29;48.30;96350.44;6271936;28;20398;-64
2022/07/06 15:22:26;;;;;;;;;;;;;;;19.41;48.25;96354.44;6273270;28;19931;-66
2022/07/06 15:25:29;;;;;;;;;;;;;;;19.30;48.54;96352.09;6273149;28;20309;-65
2022/07/06 15:28:31;;;;;;;;;;;;;;;19.23;48.48;96351.13;6273117;28;20394;-65
2022/07/06 15:31:35;;;;;;;;;;;;;;;19.34;48.89;96357.97;6273162;28;19928;-65
2022/07/06 15:34:38;;;;;;;;;;;;;;;19.16;48.94;96356.25;6272908;28;19924;-67
2022/07/06 15:37:42;;;;;;;;;;;;;;;19.06;49.58;96356.44;6272668;28;20355;-66
2022/07/06 15:40:48;;;;;;;;;;;;;;;18.97;49.96;96356.59;6271515;28;19925;-65
2022/07/06 15:43:51;;;;;;;;;;;;;;;18.99;50.13;96354.59;6272553;28;20314;-66
2022/07/06 15:46:54;;;;;;;;;;;;;;;18.82;50.67;96353.72;6272940;28;19924;-64
2022/07/06 15:49:58;;;;;;;;;;;;;;;18.56;51.08;96351.97;6272838;28;19920;-65
2022/07/06 15:53:02;;;;;;;;;;;;;;;18.38;51.39;96353.91;6272855;28;19925;-65
2022/07/06 15:56:16;;;;;;;;;;;;;;;18.28;52.09;96356.69;6272745;28;19925;-66
2022/07/06 15:59:20;;;;;;;;;;;;;;;18.22;52.38;96357.31;6249895;28;19935;-66
2022/07/06 16:02:24;;;;;;;;;;;;;;;18.14;52.27;96355.44;6272448;28;19925;-65
2022/07/06 16:05:28;;;;;;;;;;;;;;;18.12;52.29;96364.63;6272968;28;19924;-65